Time;durP1;ratioP1;P1;durP2;ratioP2;P2;SDS_P1;SDS_P2;PMS_P1;PMS_P2;Temp;Humidity;BMP_temperature;BMP_pressure;BME280_temperature;BME280_humidity;BME280_pressure;Samples;Min_cycle;Max_cycle;Signal;HPM_P1;HPM_P2
2022/07/13 00:00:34;;;;;;;19.47;17.90;;;;;;;15.68;100.00;99215.94;2082825;28;20194;-77
2022/07/13 00:01:36;;;;;;;19.63;17.80;;;;;;;15.68;100.00;99215.13;2082987;28;20434;-74
2022/07/13 00:02:37;;;;;;;19.77;18.17;;;;;;;15.64;100.00;99212.31;2082974;28;20484;-74
2022/07/13 00:03:39;;;;;;;20.17;18.30;;;;;;;15.67;100.00;99216.25;2083293;28;20423;-73
2022/07/13 00:04:39;;;;;;;20.50;18.67;;;;;;;15.63;100.00;99221.47;2082136;28;20254;-74
2022/07/13 00:05:41;;;;;;;20.37;18.53;;;;;;;15.68;100.00;99210.53;2074448;28;20443;-74
2022/07/13 00:06:43;;;;;;;20.90;19.30;;;;;;;15.64;100.00;99206.16;2082383;28;20223;-74
2022/07/13 00:07:46;;;;;;;21.70;18.67;;;;;;;15.60;100.00;99213.25;2082850;28;20448;-74
2022/07/13 00:08:46;;;;;;;20.20;18.60;;;;;;;15.64;100.00;99222.28;2082731;28;20430;-73
2022/07/13 00:09:48;;;;;;;21.10;19.40;;;;;;;15.62;100.00;99222.59;2082235;28;20488;-73
2022/07/13 00:10:50;;;;;;;21.07;19.27;;;;;;;15.61;100.00;99215.66;2082734;28;20198;-74
2022/07/13 00:11:52;;;;;;;21.13;19.33;;;;;;;15.59;100.00;99215.16;2082601;28;20442;-74
2022/07/13 00:12:54;;;;;;;20.23;18.63;;;;;;;15.59;100.00;99212.47;2083058;28;20457;-73
2022/07/13 00:13:57;;;;;;;21.67;19.07;;;;;;;15.56;100.00;99205.06;2082685;28;20434;-74
2022/07/13 00:14:59;;;;;;;20.73;19.03;;;;;;;15.57;100.00;99211.22;2083442;28;20438;-74
2022/07/13 00:16:01;;;;;;;21.30;19.50;;;;;;;15.57;100.00;99206.63;2083379;28;20427;-74
2022/07/13 00:17:01;;;;;;;20.15;18.45;;;;;;;15.55;100.00;99214.25;2083170;28;20478;-74
2022/07/13 00:18:03;;;;;;;21.20;19.30;;;;;;;15.49;100.00;99219.00;2083554;28;20191;-74
2022/07/13 00:19:06;;;;;;;20.48;18.73;;;;;;;15.52;100.00;99212.97;2082210;28;20685;-74
2022/07/13 00:20:10;;;;;;;20.02;18.40;;;;;;;15.50;100.00;99217.09;2082660;28;20566;-74
2022/07/13 00:21:10;;;;;;;20.87;18.93;;;;;;;15.48;100.00;99205.91;2083679;28;20241;-74
2022/07/13 00:22:13;;;;;;;21.97;19.43;;;;;;;15.48;100.00;99213.97;2082786;28;20966;-74
2022/07/13 00:23:14;;;;;;;20.83;18.87;;;;;;;15.43;100.00;99209.53;2082988;28;20202;-73
2022/07/13 00:24:16;;;;;;;20.27;18.67;;;;;;;15.40;100.00;99204.03;2083325;28;20469;-74
2022/07/13 00:25:17;;;;;;;20.87;19.00;;;;;;;15.37;100.00;99204.66;2082451;28;20752;-74
2022/07/13 00:26:20;;;;;;;20.03;18.37;;;;;;;15.35;100.00;99204.19;2082974;28;20762;-74
2022/07/13 00:27:22;;;;;;;20.40;18.70;;;;;;;15.38;100.00;99212.44;2083181;28;20278;-74
2022/07/13 00:28:25;;;;;;;20.47;18.77;;;;;;;15.39;100.00;99216.69;2082121;28;20456;-74
2022/07/13 00:29:27;;;;;;;20.53;18.70;;;;;;;15.34;100.00;99202.63;2074524;28;20808;-73
2022/07/13 00:30:28;;;;;;;19.50;18.00;;;;;;;15.32;100.00;99204.88;2082538;28;20513;-73
2022/07/13 00:31:29;;;;;;;20.67;18.77;;;;;;;15.34;100.00;99200.72;2082595;28;20202;-73
2022/07/13 00:32:30;;;;;;;20.00;18.30;;;;;;;15.29;100.00;99206.31;2082562;28;20182;-74
2022/07/13 00:33:31;;;;;;;20.17;18.45;;;;;;;15.28;100.00;99208.19;2082726;28;20187;-73
2022/07/13 00:34:33;;;;;;;20.10;18.20;;;;;;;15.24;100.00;99201.88;2074269;28;20191;-73
2022/07/13 00:35:35;;;;;;;20.30;18.40;;;;;;;15.22;100.00;99206.00;2082506;28;20263;-73
2022/07/13 00:36:37;;;;;;;20.25;18.52;;;;;;;15.23;100.00;99205.69;2082265;28;20705;-74
2022/07/13 00:37:38;;;;;;;19.90;18.20;;;;;;;15.23;100.00;99205.69;2082490;28;20184;-73
2022/07/13 00:38:39;;;;;;;20.40;18.50;;;;;;;15.22;100.00;99209.50;2083407;28;20422;-73
2022/07/13 00:39:40;;;;;;;20.42;18.48;;;;;;;15.16;100.00;99194.66;2082766;28;20227;-74
2022/07/13 00:40:42;;;;;;;19.53;18.03;;;;;;;15.14;100.00;99206.84;2082362;28;20208;-74
2022/07/13 00:41:48;;;;;;;20.80;18.70;;;;;;;15.10;100.00;99201.28;2082849;28;20267;-73
2022/07/13 00:42:50;;;;;;;20.25;18.42;;;;;;;15.08;100.00;99200.84;2082290;28;20870;-73
2022/07/13 00:43:52;;;;;;;19.52;17.92;;;;;;;15.06;100.00;99200.38;2082452;28;20203;-73
2022/07/13 00:44:54;;;;;;;19.98;18.40;;;;;;;15.02;100.00;99191.38;2082506;28;20212;-74
2022/07/13 00:45:54;;;;;;;19.80;18.17;;;;;;;15.01;100.00;99192.47;2074126;28;20208;-74
2022/07/13 00:46:56;;;;;;;18.93;17.53;;;;;;;15.00;100.00;99201.66;2074295;28;20215;-73
2022/07/13 00:48:00;;;;;;;18.65;17.25;;;;;;;14.97;100.00;99188.88;2082633;28;20708;-73
2022/07/13 00:49:02;;;;;;;19.48;17.63;;;;;;;14.95;100.00;99194.56;2081958;28;20290;-73
2022/07/13 00:50:06;;;;;;;18.92;17.48;;;;;;;14.94;100.00;99189.50;2082513;28;20654;-74
2022/07/13 00:51:08;;;;;;;19.65;18.10;;;;;;;14.93;100.00;99195.97;2082467;28;20262;-76
2022/07/13 00:52:11;;;;;;;20.90;17.92;;;;;;;14.91;100.00;99190.16;2082998;28;20199;-73
2022/07/13 00:53:14;;;;;;;19.55;18.05;;;;;;;14.92;100.00;99189.03;2083025;28;20274;-73
2022/07/13 00:54:15;;;;;;;20.38;18.45;;;;;;;14.87;100.00;99189.22;2083134;28;20199;-73
2022/07/13 00:55:18;;;;;;;19.55;18.05;;;;;;;14.82;100.00;99186.69;2081937;28;20234;-73
2022/07/13 00:56:20;;;;;;;19.88;18.23;;;;;;;14.80;100.00;99191.63;2082340;28;20187;-73
2022/07/13 00:57:24;;;;;;;20.15;18.55;;;;;;;14.75;100.00;99194.47;2083044;28;20556;-73
2022/07/13 00:58:25;;;;;;;20.20;18.60;;;;;;;14.67;100.00;99188.78;2082040;28;20318;-73
2022/07/13 00:59:27;;;;;;;20.25;18.58;;;;;;;14.66;100.00;99183.75;2074054;28;20291;-74
2022/07/13 01:00:27;;;;;;;20.17;18.38;;;;;;;14.64;100.00;99186.75;2081917;28;20199;-74
2022/07/13 01:01:29;;;;;;;19.87;18.30;;;;;;;14.60;100.00;99185.81;2074014;28;20192;-73
2022/07/13 01:02:34;;;;;;;19.95;18.20;;;;;;;14.60;100.00;99185.03;2074336;28;20283;-73
2022/07/13 01:03:35;;;;;;;20.30;18.58;;;;;;;14.59;100.00;99192.28;2074359;28;20196;-73
2022/07/13 01:04:39;;;;;;;20.23;18.27;;;;;;;14.54;100.00;99187.09;2082311;28;20217;-73
2022/07/13 01:05:41;;;;;;;20.80;18.88;;;;;;;14.51;100.00;99193.09;2082429;28;20712;-73
2022/07/13 01:06:42;;;;;;;20.60;18.80;;;;;;;14.49;100.00;99192.59;2073735;28;20228;-73
2022/07/13 01:07:43;;;;;;;20.67;18.77;;;;;;;14.45;100.00;99186.31;2082393;28;20272;-73
2022/07/13 01:08:45;;;;;;;19.73;18.02;;;;;;;14.43;100.00;99180.44;2082169;28;20282;-76
2022/07/13 01:09:47;;;;;;;19.80;18.10;;;;;;;14.41;100.00;99179.94;2074093;28;20235;-73
2022/07/13 01:10:48;;;;;;;20.08;18.48;;;;;;;14.41;100.00;99185.31;2082378;28;20211;-73
2022/07/13 01:11:53;;;;;;;19.80;18.30;;;;;;;14.38;100.00;99176.03;2082116;28;20204;-73
2022/07/13 01:12:55;;;;;;;20.88;18.55;;;;;;;14.36;100.00;99177.47;2082486;28;20627;-73
2022/07/13 01:13:56;;;;;;;20.95;18.77;;;;;;;14.35;100.00;99183.94;2082315;28;20670;-73
2022/07/13 01:14:58;;;;;;;21.15;18.92;;;;;;;14.37;100.00;99181.72;2082768;28;20313;-73
2022/07/13 01:15:59;;;;;;;20.30;18.60;;;;;;;14.35;100.00;99181.25;2082509;28;20705;-74
2022/07/13 01:17:00;;;;;;;20.30;18.30;;;;;;;14.32;100.00;99179.97;2082295;28;20215;-74
2022/07/13 01:18:03;;;;;;;20.48;18.67;;;;;;;14.31;100.00;99182.97;2082136;28;20192;-73
2022/07/13 01:19:06;;;;;;;21.17;19.27;;;;;;;14.25;100.00;99187.72;2074177;28;20257;-73
2022/07/13 01:20:09;;;;;;;20.88;18.70;;;;;;;14.22;100.00;99191.03;2082110;28;20203;-73
2022/07/13 01:21:10;;;;;;;20.65;18.90;;;;;;;14.18;100.00;99187.41;2082705;28;20191;-73
2022/07/13 01:22:15;;;;;;;21.35;19.13;;;;;;;14.17;100.00;99180.47;2082019;28;20195;-73
2022/07/13 01:23:17;;;;;;;20.85;18.85;;;;;;;14.15;100.00;99180.75;2082433;28;20282;-76
2022/07/13 01:24:19;;;;;;;20.08;18.45;;;;;;;14.10;100.00;99183.63;2081885;28;20206;-74
2022/07/13 01:25:20;;;;;;;21.02;18.98;;;;;;;14.08;100.00;99177.00;2082123;28;20192;-74
2022/07/13 01:26:22;;;;;;;20.00;18.30;;;;;;;14.09;100.00;99183.94;2082727;28;20266;-74
2022/07/13 01:27:23;;;;;;;20.58;18.70;;;;;;;14.07;100.00;99178.09;2082712;28;20282;-74
2022/07/13 01:28:25;;;;;;;20.27;18.57;;;;;;;14.05;100.00;99178.41;2083359;28;20195;-74
2022/07/13 01:29:25;;;;;;;20.58;18.85;;;;;;;14.03;100.00;99174.47;2082873;28;20188;-74
2022/07/13 01:30:28;;;;;;;20.50;18.70;;;;;;;13.99;100.00;99179.69;2082663;28;20222;-74
2022/07/13 01:31:36;;;;;;;20.55;18.55;;;;;;;13.93;100.00;99170.22;2082653;28;20203;-74
2022/07/13 01:32:46;;;;;;;20.90;18.88;;;;;;;13.98;100.00;99171.94;2075339;28;20192;-74
2022/07/13 01:33:47;;;;;;;20.63;18.83;;;;;;;13.93;100.00;99180.94;2082211;28;20191;-74
2022/07/13 01:34:49;;;;;;;21.00;18.98;;;;;;;13.95;100.00;99178.72;2073757;28;20193;-74
2022/07/13 01:35:49;;;;;;;20.70;18.58;;;;;;;13.93;100.00;99186.31;2073738;28;20248;-74
2022/07/13 01:36:51;;;;;;;21.10;19.10;;;;;;;13.90;100.00;99184.25;2081629;28;20227;-74
2022/07/13 01:37:53;;;;;;;19.95;18.08;;;;;;;13.88;100.00;99183.75;2081540;28;20238;-74
2022/07/13 01:38:58;;;;;;;20.83;18.75;;;;;;;13.88;100.00;99189.13;2074028;28;20717;-74
2022/07/13 01:40:01;;;;;;;20.58;18.85;;;;;;;13.98;100.00;99188.03;2074259;28;20200;-75
2022/07/13 01:41:03;;;;;;;21.33;19.20;;;;;;;13.90;100.00;99186.94;2082012;28;20188;-74
2022/07/13 01:42:05;;;;;;;21.23;19.23;;;;;;;13.84;100.00;99183.63;2082032;28;20204;-74
2022/07/13 01:43:05;;;;;;;20.95;18.95;;;;;;;13.82;100.00;99179.66;2073648;28;20306;-74
2022/07/13 01:44:08;;;;;;;20.27;18.57;;;;;;;13.78;100.00;99184.84;2081886;28;20203;-74
2022/07/13 01:45:11;;;;;;;20.77;18.90;;;;;;;13.77;100.00;99182.50;2081940;28;20572;-74
2022/07/13 01:46:16;;;;;;;21.60;19.40;;;;;;;13.74;100.00;99188.50;2082657;28;20590;-74
2022/07/13 01:47:16;;;;;;;20.73;18.70;;;;;;;13.74;100.00;99193.84;2081847;28;20202;-74
2022/07/13 01:48:18;;;;;;;20.30;18.40;;;;;;;13.73;100.00;99192.28;2081862;28;20295;-73
2022/07/13 01:49:18;;;;;;;20.02;18.23;;;;;;;13.68;100.00;99190.53;2081777;28;20202;-74
2022/07/13 01:50:22;;;;;;;20.20;18.43;;;;;;;13.66;100.00;99181.22;2081961;28;20192;-74
2022/07/13 01:51:24;;;;;;;20.05;18.45;;;;;;;13.67;100.00;99188.16;2081222;28;20246;-74
2022/07/13 01:52:28;;;;;;;20.50;18.60;;;;;;;13.62;100.00;99189.09;2074045;28;20251;-74
2022/07/13 01:53:30;;;;;;;20.30;18.40;;;;;;;13.61;100.00;99184.81;2073825;28;20196;-74
2022/07/13 01:54:33;;;;;;;21.15;19.15;;;;;;;13.55;100.00;99180.69;2081893;28;20188;-74
2022/07/13 01:55:34;;;;;;;21.52;19.10;;;;;;;13.54;100.00;99182.59;2081851;28;20669;-74
2022/07/13 01:56:35;;;;;;;20.20;18.57;;;;;;;13.56;100.00;99183.09;2081948;28;20575;-74
2022/07/13 01:57:37;;;;;;;21.00;19.00;;;;;;;13.55;100.00;99184.19;2081822;28;20206;-73
2022/07/13 01:58:40;;;;;;;20.42;18.38;;;;;;;13.54;100.00;99179.91;2080905;28;20223;-74
2022/07/13 01:59:42;;;;;;;19.83;18.20;;;;;;;13.58;100.00;99188.16;2073856;28;20208;-73
2022/07/13 02:00:47;;;;;;;20.38;18.50;;;;;;;13.55;100.00;99176.16;2073857;28;20204;-74
2022/07/13 02:01:49;;;;;;;20.15;18.50;;;;;;;13.53;100.00;99178.34;2081838;28;20275;-74
2022/07/13 02:02:51;;;;;;;20.98;18.90;;;;;;;13.50;100.00;99187.03;2081897;28;20568;-74
2022/07/13 02:03:55;;;;;;;20.98;18.33;;;;;;;13.49;100.00;99180.09;2074002;28;20199;-74
2022/07/13 02:04:58;;;;;;;19.20;17.70;;;;;;;13.49;100.00;99185.44;2081771;28;20207;-74
2022/07/13 02:05:59;;;;;;;19.55;17.63;;;;;;;13.52;100.00;99186.69;2081873;28;20279;-74
2022/07/13 02:07:04;;;;;;;19.23;17.77;;;;;;;13.51;100.00;99179.75;2081823;28;20235;-74
2022/07/13 02:08:06;;;;;;;20.63;18.02;;;;;;;13.51;100.00;99177.88;2074217;28;20230;-74
2022/07/13 02:09:08;;;;;;;19.27;17.73;;;;;;;13.51;100.00;99177.88;2081789;28;20196;-74
2022/07/13 02:10:11;;;;;;;19.48;18.05;;;;;;;13.50;100.00;99176.28;2081299;28;20231;-74
2022/07/13 02:11:15;;;;;;;18.90;17.60;;;;;;;13.50;100.00;99176.28;2073767;28;20255;-74
2022/07/13 02:12:17;;;;;;;19.13;17.73;;;;;;;13.50;100.00;99184.34;2081828;28;20188;-73
2022/07/13 02:13:21;;;;;;;18.98;17.48;;;;;;;13.52;100.00;99175.97;2081715;28;20196;-74
2022/07/13 02:14:23;;;;;;;19.08;17.70;;;;;;;13.51;100.00;99172.50;2074019;28;20273;-74
2022/07/13 02:15:25;;;;;;;18.90;17.40;;;;;;;13.51;100.00;99172.50;2081627;28;20278;-74
2022/07/13 02:16:26;;;;;;;19.57;18.17;;;;;;;13.48;100.00;99170.47;2073462;28;20195;-74
2022/07/13 02:17:27;;;;;;;19.83;18.23;;;;;;;13.47;100.00;99165.41;2074134;28;20259;-74
2022/07/13 02:18:29;;;;;;;19.57;17.90;;;;;;;13.47;100.00;99174.25;2081768;28;20194;-76
2022/07/13 02:19:31;;;;;;;19.10;17.70;;;;;;;13.45;100.00;99165.72;2081638;28;20195;-74
2022/07/13 02:20:33;;;;;;;19.58;18.00;;;;;;;13.44;100.00;99172.16;2081761;28;20229;-73
2022/07/13 02:21:35;;;;;;;19.63;18.05;;;;;;;13.46;100.00;99158.44;2081252;28;20223;-74
2022/07/13 02:22:43;;;;;;;19.90;18.20;;;;;;;13.43;100.00;99175.16;2072435;28;20674;-73
2022/07/13 02:23:44;;;;;;;18.90;17.35;;;;;;;13.39;100.00;99160.81;2073432;28;20633;-74
2022/07/13 02:24:45;;;;;;;19.13;17.53;;;;;;;13.35;100.00;99155.28;2065202;28;20201;-74
2022/07/13 02:25:53;;;;;;;19.00;17.40;;;;;;;13.42;100.00;99154.84;2065063;28;20215;-74
2022/07/13 02:26:55;;;;;;;19.00;17.30;;;;;;;13.37;100.00;99153.06;2073844;28;20196;-74
2022/07/13 02:27:57;;;;;;;19.07;17.50;;;;;;;13.36;100.00;99164.91;2074008;28;20677;-74
2022/07/13 02:28:59;;;;;;;18.25;16.70;;;;;;;13.31;100.00;99157.03;2073405;28;20266;-73
2022/07/13 02:30:00;;;;;;;18.70;17.30;;;;;;;13.32;100.00;99155.91;2073258;28;20203;-74
2022/07/13 02:31:01;;;;;;;18.75;17.25;;;;;;;13.29;100.00;99167.25;2073416;28;20192;-74
2022/07/13 02:32:03;;;;;;;19.07;17.57;;;;;;;13.23;100.00;99158.56;2073518;28;20192;-74
2022/07/13 02:33:04;;;;;;;18.95;17.48;;;;;;;13.20;100.00;99153.81;2072994;28;20295;-74
2022/07/13 02:34:06;;;;;;;19.13;17.63;;;;;;;13.15;100.00;99156.63;2065292;28;20277;-74
2022/07/13 02:35:08;;;;;;;19.20;17.55;;;;;;;13.15;100.00;99159.31;2073476;28;20439;-74
2022/07/13 02:36:12;;;;;;;19.27;17.63;;;;;;;13.13;100.00;99166.06;2072903;28;20200;-74
2022/07/13 02:37:13;;;;;;;18.70;17.30;;;;;;;13.19;100.00;99164.81;2073611;28;20204;-74
2022/07/13 02:38:14;;;;;;;20.07;18.30;;;;;;;13.18;100.00;99169.38;2074105;28;20199;-74
2022/07/13 02:39:15;;;;;;;19.65;17.85;;;;;;;13.11;100.00;99168.25;2074065;28;20192;-74
2022/07/13 02:40:17;;;;;;;19.70;17.70;;;;;;;13.07;100.00;99164.63;2073495;28;20192;-74
2022/07/13 02:41:20;;;;;;;18.67;17.05;;;;;;;13.04;100.00;99165.25;2073451;28;20642;-73
2022/07/13 02:42:26;;;;;;;19.65;17.77;;;;;;;13.00;100.00;99176.56;2074078;28;20635;-74
2022/07/13 02:43:27;;;;;;;18.45;16.98;;;;;;;12.97;100.00;99166.47;2073780;28;20200;-74
2022/07/13 02:44:30;;;;;;;19.87;17.80;;;;;;;12.97;100.00;99171.06;2073537;28;20184;-74
2022/07/13 02:45:31;;;;;;;18.67;17.08;;;;;;;12.96;100.00;99172.94;2073475;28;20212;-74
2022/07/13 02:46:32;;;;;;;18.97;17.27;;;;;;;12.98;100.00;99178.78;2065163;28;20208;-74
2022/07/13 02:47:33;;;;;;;18.40;16.80;;;;;;;12.99;100.00;99166.16;2073375;28;20307;-74
2022/07/13 02:48:36;;;;;;;18.75;17.05;;;;;;;12.98;100.00;99172.63;2073960;28;20275;-74
2022/07/13 02:49:37;;;;;;;19.25;17.48;;;;;;;12.95;100.00;99174.03;2073377;28;20610;-74
2022/07/13 02:50:41;;;;;;;19.95;18.05;;;;;;;12.92;100.00;99171.97;2073473;28;20193;-74
2022/07/13 02:51:42;;;;;;;20.58;18.48;;;;;;;12.90;100.00;99171.50;2073223;28;20224;-74
2022/07/13 02:52:45;;;;;;;20.20;18.52;;;;;;;12.91;100.00;99173.06;2073272;28;20192;-74
2022/07/13 02:53:47;;;;;;;21.27;19.10;;;;;;;12.86;100.00;99172.44;2065401;28;20609;-74
2022/07/13 02:54:49;;;;;;;20.83;18.60;;;;;;;12.80;100.00;99166.41;2073407;28;20319;-74
2022/07/13 02:55:51;;;;;;;20.45;18.73;;;;;;;12.79;100.00;99170.19;2073303;28;20573;-74
2022/07/13 02:56:56;;;;;;;21.00;18.75;;;;;;;12.77;100.00;99171.56;2065316;28;20236;-74
2022/07/13 02:58:01;;;;;;;20.25;18.27;;;;;;;12.80;100.00;99170.97;2073268;28;20192;-74
2022/07/13 02:59:03;;;;;;;22.63;18.85;;;;;;;12.80;100.00;99168.28;2073291;28;20196;-74
2022/07/13 03:00:08;;;;;;;20.27;18.25;;;;;;;12.75;100.00;99166.53;2073496;28;20254;-74
2022/07/13 03:01:08;;;;;;;20.40;18.60;;;;;;;12.79;100.00;99172.06;2073317;28;20706;-74
2022/07/13 03:02:10;;;;;;;20.83;18.60;;;;;;;12.75;100.00;99174.56;2073340;28;20622;-73
2022/07/13 03:03:12;;;;;;;20.60;18.23;;;;;;;12.74;100.00;99179.13;2073283;28;20258;-74
2022/07/13 03:04:14;;;;;;;20.90;18.90;;;;;;;12.71;100.00;99176.28;2073374;28;20687;-74
2022/07/13 03:05:15;;;;;;;20.15;18.48;;;;;;;12.68;100.00;99174.19;2073201;28;20243;-74
2022/07/13 03:06:17;;;;;;;20.43;18.53;;;;;;;12.68;100.00;99180.38;2064677;28;20307;-74
2022/07/13 03:07:18;;;;;;;21.25;19.25;;;;;;;12.68;100.00;99174.19;2073422;28;20192;-74
2022/07/13 03:08:19;;;;;;;20.67;18.77;;;;;;;12.65;100.00;99185.53;2081427;28;20290;-74
2022/07/13 03:09:21;;;;;;;20.13;18.25;;;;;;;12.66;100.00;99184.44;2073241;28;20295;-73
2022/07/13 03:10:25;;;;;;;20.25;18.15;;;;;;;12.64;100.00;99176.72;2073427;28;20200;-74
2022/07/13 03:11:31;;;;;;;20.73;18.55;;;;;;;12.63;100.00;99182.38;2073404;28;20200;-74
2022/07/13 03:12:34;;;;;;;20.08;18.05;;;;;;;12.61;100.00;99176.53;2073312;28;20268;-74
2022/07/13 03:13:35;;;;;;;19.08;17.35;;;;;;;12.59;100.00;99178.72;2073093;28;20196;-74
2022/07/13 03:14:37;;;;;;;18.90;17.30;;;;;;;12.64;100.00;99183.94;2064919;28;20292;-73
2022/07/13 03:15:37;;;;;;;19.00;17.40;;;;;;;12.64;100.00;99183.94;2065400;28;20251;-74
2022/07/13 03:16:39;;;;;;;18.67;17.17;;;;;;;12.63;100.00;99185.06;2065014;28;20699;-74
2022/07/13 03:17:41;;;;;;;18.90;17.23;;;;;;;12.64;100.00;99189.31;2065474;28;20217;-74
2022/07/13 03:18:45;;;;;;;18.83;17.42;;;;;;;12.66;100.00;99189.78;2065754;28;20205;-74
2022/07/13 03:19:46;;;;;;;19.27;17.65;;;;;;;12.63;100.00;99191.19;2073640;28;20192;-74
2022/07/13 03:20:48;;;;;;;19.30;17.70;;;;;;;12.66;100.00;99187.09;2073229;28;20240;-74
2022/07/13 03:21:50;;;;;;;18.65;17.15;;;;;;;12.66;100.00;99187.09;2064827;28;20710;-74
2022/07/13 03:22:52;;;;;;;18.70;17.30;;;;;;;12.71;100.00;99195.03;2073231;28;20581;-74
2022/07/13 03:23:54;;;;;;;19.45;17.77;;;;;;;12.69;100.00;99189.19;2073140;28;20670;-73
2022/07/13 03:24:56;;;;;;;18.80;17.03;;;;;;;12.66;100.00;99189.78;2073317;28;20530;-74
2022/07/13 03:25:57;;;;;;;19.65;17.92;;;;;;;12.65;100.00;99190.88;2073216;28;20188;-74
2022/07/13 03:26:59;;;;;;;19.47;17.77;;;;;;;12.65;100.00;99191.66;2073216;28;20192;-74
2022/07/13 03:28:02;;;;;;;19.25;17.70;;;;;;;12.68;100.00;99199.09;2073487;28;20201;-74
2022/07/13 03:29:04;;;;;;;18.83;17.15;;;;;;;12.67;100.00;99196.72;2065187;28;20244;-74
2022/07/13 03:30:07;;;;;;;19.08;17.33;;;;;;;12.72;100.00;99201.94;2073373;28;20229;-74
2022/07/13 03:31:10;;;;;;;18.35;16.95;;;;;;;12.71;100.00;99197.69;2073178;28;20192;-74
2022/07/13 03:32:12;;;;;;;18.95;17.45;;;;;;;12.68;100.00;99201.78;2065589;28;20201;-76
2022/07/13 03:33:14;;;;;;;18.65;17.15;;;;;;;12.68;100.00;99195.59;2065151;28;20193;-74
2022/07/13 03:34:14;;;;;;;18.52;17.23;;;;;;;12.68;100.00;99199.09;2073478;28;20235;-74
2022/07/13 03:35:17;;;;;;;19.17;17.17;;;;;;;12.71;100.00;99197.69;2073103;28;20235;-73
2022/07/13 03:36:21;;;;;;;18.42;16.75;;;;;;;12.68;100.00;99196.44;2064531;28;20216;-74
2022/07/13 03:37:23;;;;;;;18.58;17.08;;;;;;;12.71;100.00;99197.69;2073154;28;20678;-73
2022/07/13 03:38:33;;;;;;;18.77;17.23;;;;;;;12.75;100.00;99198.66;2073264;28;20196;-74
2022/07/13 03:39:35;;;;;;;18.77;17.35;;;;;;;12.74;100.00;99199.75;2066183;28;20185;-74
2022/07/13 03:40:38;;;;;;;18.40;17.00;;;;;;;12.75;100.00;99201.31;2074719;28;20192;-73
2022/07/13 03:41:40;;;;;;;19.38;17.88;;;;;;;12.72;100.00;99201.94;2066722;28;20212;-73
2022/07/13 03:42:41;;;;;;;18.60;17.30;;;;;;;12.78;100.00;99198.06;2066833;28;20276;-74
2022/07/13 03:43:43;;;;;;;19.38;17.88;;;;;;;12.78;100.00;99199.94;2074743;28;20192;-74
2022/07/13 03:44:47;;;;;;;18.63;17.30;;;;;;;12.77;100.00;99201.84;2074924;28;20199;-75
2022/07/13 03:45:51;;;;;;;19.20;17.67;;;;;;;12.77;100.00;99195.66;2066968;28;20245;-74
2022/07/13 03:46:53;;;;;;;19.80;18.08;;;;;;;12.76;100.00;99192.19;2066855;28;20220;-74
2022/07/13 03:47:54;;;;;;;19.52;17.75;;;;;;;12.79;100.00;99196.97;2074545;28;20597;-74
2022/07/13 03:48:56;;;;;;;20.23;17.45;;;;;;;12.83;100.00;99203.25;2074729;28;20242;-74
2022/07/13 03:49:58;;;;;;;19.10;17.52;;;;;;;12.83;100.00;99200.59;2066691;28;20200;-74
2022/07/13 03:51:00;;;;;;;19.37;17.60;;;;;;;12.84;100.00;99196.81;2065972;28;20679;-74
2022/07/13 03:52:00;;;;;;;18.40;16.83;;;;;;;12.85;100.00;99197.59;2066787;28;20185;-74
2022/07/13 03:53:02;;;;;;;18.57;17.23;;;;;;;12.86;100.00;99202.66;2066514;28;20197;-74
2022/07/13 03:54:08;;;;;;;18.40;17.00;;;;;;;12.86;100.00;99202.66;2075083;28;20613;-74
2022/07/13 03:55:09;;;;;;;18.38;16.98;;;;;;;12.94;100.00;99209.97;2082764;28;20196;-73
2022/07/13 03:56:11;;;;;;;18.50;17.17;;;;;;;12.93;100.00;99210.25;2074852;28;20199;-73
2022/07/13 03:57:13;;;;;;;18.97;17.27;;;;;;;12.92;100.00;99197.94;2066427;28;20275;-74
2022/07/13 03:58:14;;;;;;;18.50;17.05;;;;;;;12.96;100.00;99204.28;2074510;28;20235;-74
2022/07/13 03:59:19;;;;;;;18.35;16.75;;;;;;;12.96;100.00;99205.06;2074522;28;20220;-74
2022/07/13 04:00:21;;;;;;;19.00;17.10;;;;;;;13.01;100.00;99207.59;2066606;28;20220;-74
2022/07/13 04:01:29;;;;;;;19.98;18.23;;;;;;;12.99;100.00;99199.09;2067001;28;20641;-74
2022/07/13 04:02:29;;;;;;;19.38;17.80;;;;;;;13.00;100.00;99197.22;2074779;28;20243;-74
2022/07/13 04:03:31;;;;;;;19.70;17.90;;;;;;;13.00;100.00;99202.56;2082885;28;20192;-74
2022/07/13 04:04:32;;;;;;;19.52;17.92;;;;;;;13.02;100.00;99201.16;2074482;28;20639;-75
2022/07/13 04:05:35;;;;;;;19.65;18.00;;;;;;;13.05;100.00;99204.34;2074711;28;20235;-74
2022/07/13 04:06:37;;;;;;;19.17;17.67;;;;;;;13.04;100.00;99208.13;2074070;28;20230;-75
2022/07/13 04:07:42;;;;;;;18.90;17.30;;;;;;;13.06;100.00;99208.59;2066442;28;20554;-75
2022/07/13 04:08:43;;;;;;;19.77;17.98;;;;;;;13.07;100.00;99202.13;2074537;28;20299;-74
2022/07/13 04:09:45;;;;;;;19.73;17.93;;;;;;;13.07;100.00;99202.13;2074393;28;20200;-74
2022/07/13 04:10:45;;;;;;;19.40;17.33;;;;;;;13.06;100.00;99201.34;2075378;28;20227;-74
2022/07/13 04:11:49;;;;;;;18.58;16.92;;;;;;;13.12;100.00;99201.97;2074437;28;20212;-75
2022/07/13 04:12:53;;;;;;;17.65;15.80;;;;;;;13.16;100.00;99202.94;2066424;28;20232;-74
2022/07/13 04:13:56;;;;;;;19.00;17.20;;;;;;;13.15;100.00;99206.75;2075778;28;20196;-74
2022/07/13 04:14:59;;;;;;;18.95;17.45;;;;;;;13.17;100.00;99199.16;2074387;28;20192;-75
2022/07/13 04:16:00;;;;;;;19.65;17.65;;;;;;;13.19;100.00;99199.66;2066378;28;20325;-75
2022/07/13 04:17:05;;;;;;;19.63;17.63;;;;;;;13.19;100.00;99205.00;2066828;28;20662;-74
2022/07/13 04:18:07;;;;;;;18.98;17.48;;;;;;;13.23;100.00;99208.69;2074480;28;20188;-75
2022/07/13 04:19:09;;;;;;;19.40;17.80;;;;;;;13.23;100.00;99201.44;2074397;28;20291;-74
2022/07/13 04:20:12;;;;;;;18.20;16.80;;;;;;;13.24;100.00;99202.22;2066767;28;20659;-74
2022/07/13 04:21:17;;;;;;;18.52;16.85;;;;;;;13.30;100.00;99201.00;2074411;28;20220;-74
2022/07/13 04:22:19;;;;;;;17.90;16.45;;;;;;;13.35;100.00;99203.53;2074454;28;20188;-74
2022/07/13 04:23:20;;;;;;;17.58;16.23;;;;;;;13.40;100.00;99206.06;2074440;28;20762;-75
2022/07/13 04:24:23;;;;;;;17.23;16.08;;;;;;;13.40;100.00;99199.91;2074647;28;20238;-74
2022/07/13 04:25:25;;;;;;;17.48;16.08;;;;;;;13.45;100.00;99208.59;2066289;28;20668;-75
2022/07/13 04:26:28;;;;;;;17.20;16.00;;;;;;;13.47;100.00;99198.38;2074365;28;20276;-74
2022/07/13 04:27:30;;;;;;;17.88;16.38;;;;;;;13.47;100.00;99203.72;2074654;28;20251;-74
2022/07/13 04:28:34;;;;;;;17.85;16.27;;;;;;;13.51;100.00;99199.31;2074274;28;20303;-74
2022/07/13 04:29:37;;;;;;;17.38;16.08;;;;;;;13.53;100.00;99205.16;2074726;28;20338;-74
2022/07/13 04:30:41;;;;;;;17.73;16.20;;;;;;;13.55;100.00;99208.34;2074332;28;20199;-74
2022/07/13 04:31:45;;;;;;;17.98;16.25;;;;;;;13.53;100.00;99199.78;2066812;28;20200;-75
2022/07/13 04:32:47;;;;;;;17.92;16.50;;;;;;;13.53;100.00;99202.47;2074638;28;20589;-74
2022/07/13 04:33:50;;;;;;;17.80;16.20;;;;;;;13.57;100.00;99211.47;2074310;28;20200;-75
2022/07/13 04:34:55;;;;;;;17.98;16.45;;;;;;;13.62;100.00;99215.09;2066439;28;20228;-74
2022/07/13 04:35:57;;;;;;;17.80;16.25;;;;;;;13.65;100.00;99201.09;2065933;28;20201;-74
2022/07/13 04:36:59;;;;;;;17.20;16.00;;;;;;;13.69;100.00;99210.09;2074559;28;20200;-75
2022/07/13 04:38:01;;;;;;;18.08;16.80;;;;;;;13.68;100.00;99206.63;2074262;28;20204;-75
2022/07/13 04:39:04;;;;;;;17.70;16.42;;;;;;;13.72;100.00;99204.09;2066249;28;20580;-75
2022/07/13 04:40:06;;;;;;;18.05;16.48;;;;;;;13.75;100.00;99203.47;2074316;28;20255;-75
2022/07/13 04:41:10;;;;;;;17.58;16.27;;;;;;;13.77;100.00;99204.72;2075237;28;20180;-74
2022/07/13 04:42:14;;;;;;;18.30;16.60;;;;;;;13.84;100.00;99209.66;2074193;28;20201;-75
2022/07/13 04:43:16;;;;;;;17.73;16.33;;;;;;;13.87;100.00;99214.38;2066067;28;20655;-75